createdAt,value
2018-04-08T00:00:26.617Z,8.00
2018-04-08T00:02:54.140Z,7.90
2018-04-08T00:05:21.603Z,7.90
2018-04-08T00:07:49.082Z,7.90
2018-04-08T00:10:17.605Z,7.80
2018-04-08T00:12:45.083Z,7.80
2018-04-08T00:15:12.546Z,7.80
2018-04-08T00:17:40.018Z,7.80
2018-04-08T00:20:07.486Z,7.70
2018-04-08T00:22:35.795Z,7.60
2018-04-08T00:25:03.271Z,7.60
2018-04-08T00:27:30.746Z,7.60
2018-04-08T00:29:58.222Z,7.60
2018-04-08T00:32:25.694Z,7.70
2018-04-08T00:34:53.930Z,7.80
2018-04-08T00:37:21.418Z,7.70
2018-04-08T00:39:48.886Z,7.70
2018-04-08T00:42:17.132Z,7.70
2018-04-08T00:44:44.603Z,7.70
2018-04-08T00:47:12.079Z,7.70
2018-04-08T00:49:40.317Z,7.80
2018-04-08T00:52:07.822Z,7.80
2018-04-08T00:54:36.067Z,7.60
2018-04-08T00:57:03.540Z,7.90
2018-04-08T00:59:31.015Z,7.60
2018-04-08T01:01:59.258Z,7.60
2018-04-08T01:04:26.724Z,7.60
2018-04-08T01:06:54.202Z,7.60
2018-04-08T01:09:22.439Z,7.50
2018-04-08T01:11:50.726Z,7.40
2018-04-08T01:14:18.200Z,7.50
2018-04-08T01:16:45.666Z,7.50
2018-04-08T01:19:13.135Z,7.50
2018-04-08T01:21:41.382Z,7.30
2018-04-08T01:24:08.959Z,7.10
2018-04-08T01:26:36.434Z,7.30
2018-04-08T01:29:04.666Z,7.40
2018-04-08T01:31:32.143Z,7.50
2018-04-08T01:33:59.603Z,7.20
2018-04-08T01:36:27.860Z,7.00
2018-04-08T01:38:55.328Z,7.20
2018-04-08T01:41:22.812Z,7.00
2018-04-08T01:43:50.285Z,7.00
2018-04-08T01:46:18.543Z,7.00
2018-04-08T01:48:46.016Z,7.00
2018-04-08T01:51:14.242Z,7.10
2018-04-08T01:53:41.715Z,7.00
2018-04-08T01:56:09.183Z,7.10
2018-04-08T01:58:36.667Z,7.10
2018-04-08T02:01:04.907Z,7.20
2018-04-08T02:03:32.383Z,7.20
2018-04-08T02:05:59.850Z,7.20
2018-04-08T02:08:28.105Z,7.10
2018-04-08T02:10:55.578Z,7.20
2018-04-08T02:13:23.054Z,7.10
2018-04-08T02:15:51.298Z,7.00
2018-04-08T02:18:18.801Z,7.10
2018-04-08T02:20:47.022Z,7.00
2018-04-08T02:23:14.503Z,7.30
2018-04-08T02:25:41.963Z,7.00
2018-04-08T02:28:09.447Z,7.10
2018-04-08T02:30:36.916Z,7.10
2018-04-08T02:33:04.392Z,6.90
2018-04-08T02:35:31.867Z,6.90
2018-04-08T02:37:59.358Z,6.90
2018-04-08T02:40:26.817Z,6.80
2018-04-08T02:42:54.290Z,6.80
2018-04-08T02:45:22.522Z,6.80
2018-04-08T02:47:50.003Z,7.00
2018-04-08T02:50:17.464Z,6.80
2018-04-08T02:52:44.953Z,6.80
2018-04-08T02:55:13.759Z,6.90
2018-04-08T02:57:41.230Z,6.80
2018-04-08T03:00:08.695Z,6.70
2018-04-08T03:02:36.167Z,6.70
2018-04-08T03:05:03.912Z,6.60
2018-04-08T03:07:31.382Z,6.50
2018-04-08T03:09:58.855Z,6.50
2018-04-08T03:12:26.326Z,6.50
2018-04-08T03:14:54.563Z,6.50
2018-04-08T03:17:22.039Z,6.70
2018-04-08T03:19:49.509Z,6.40
2018-04-08T03:22:16.982Z,6.40
2018-04-08T03:24:45.218Z,6.50
2018-04-08T03:27:12.694Z,6.80
2018-04-08T03:29:40.157Z,6.50
2018-04-08T03:32:07.625Z,6.50
2018-04-08T03:34:35.099Z,6.40
2018-04-08T03:37:03.339Z,6.30
2018-04-08T03:39:30.825Z,6.50
2018-04-08T03:41:58.286Z,6.40
2018-04-08T03:44:26.544Z,6.40
2018-04-08T03:46:54.009Z,6.70
2018-04-08T03:49:21.512Z,6.40
2018-04-08T03:51:49.594Z,6.40
2018-04-08T03:54:17.079Z,6.40
2018-04-08T03:56:44.550Z,6.40
2018-04-08T03:59:12.034Z,6.20
2018-04-08T04:01:40.268Z,6.20
2018-04-08T04:04:08.515Z,6.30
2018-04-08T04:06:36.006Z,6.20
2018-04-08T04:09:03.490Z,6.20
2018-04-08T04:11:30.959Z,6.20
2018-04-08T04:13:59.221Z,6.10
2018-04-08T04:16:26.687Z,6.10
2018-04-08T04:19:06.879Z,5.90
2018-04-08T04:21:46.210Z,5.90
2018-04-08T04:24:25.693Z,5.70
2018-04-08T04:26:53.158Z,5.80
2018-04-08T04:29:21.559Z,5.70
2018-04-08T04:31:50.215Z,5.90
2018-04-08T04:34:17.697Z,5.90
2018-04-08T04:36:45.158Z,5.90
2018-04-08T04:39:13.397Z,5.90
2018-04-08T04:41:40.867Z,6.10
2018-04-08T04:44:08.329Z,6.00
2018-04-08T04:46:35.799Z,6.00
2018-04-08T04:49:03.275Z,6.00
2018-04-08T04:51:31.497Z,5.80
2018-04-08T04:53:59.358Z,5.90
2018-04-08T04:56:26.834Z,5.80
2018-04-08T04:58:54.310Z,5.80
2018-04-08T05:01:21.773Z,5.90
2018-04-08T05:03:49.260Z,6.00
2018-04-08T05:06:17.486Z,6.00
2018-04-08T05:08:44.954Z,6.00
2018-04-08T05:11:12.422Z,5.90
2018-04-08T05:13:39.894Z,5.80
2018-04-08T05:16:08.128Z,5.90
2018-04-08T05:18:35.602Z,5.80
2018-04-08T05:21:03.071Z,6.00
2018-04-08T05:23:30.546Z,5.90
2018-04-08T05:25:58.781Z,5.90
2018-04-08T05:28:26.250Z,5.90
2018-04-08T05:30:53.728Z,5.90
2018-04-08T05:33:21.205Z,6.00
2018-04-08T05:35:49.464Z,6.10
2018-04-08T05:38:16.934Z,6.20
2018-04-08T05:40:45.174Z,6.20
2018-04-08T05:43:12.636Z,5.90
2018-04-08T05:45:40.113Z,6.30
2018-04-08T05:48:07.590Z,6.30
2018-04-08T05:50:35.850Z,6.40
2018-04-08T05:53:03.325Z,6.30
2018-04-08T05:55:31.576Z,6.50
2018-04-08T05:57:59.057Z,6.40
2018-04-08T06:00:27.295Z,6.70
2018-04-08T06:02:55.257Z,6.60
2018-04-08T06:05:22.727Z,6.80
2018-04-08T06:07:50.187Z,6.90
2018-04-08T06:10:17.678Z,7.00
2018-04-08T06:12:45.958Z,7.40
2018-04-08T06:15:14.197Z,7.50
2018-04-08T06:17:41.675Z,7.50
2018-04-08T06:20:09.147Z,7.70
2018-04-08T06:22:37.379Z,8.00
2018-04-08T06:25:04.854Z,8.10
2018-04-08T06:27:32.334Z,8.20
2018-04-08T06:30:00.565Z,8.40
2018-04-08T06:32:28.054Z,8.70
2018-04-08T06:34:55.539Z,8.60
2018-04-08T06:37:23.790Z,9.20
2018-04-08T06:39:51.251Z,9.10
2018-04-08T06:42:18.731Z,9.40
2018-04-08T06:44:46.973Z,9.70
2018-04-08T06:47:14.456Z,9.70
2018-04-08T06:49:41.914Z,9.80
2018-04-08T06:52:09.392Z,9.90
2018-04-08T06:54:37.640Z,10.40
2018-04-08T06:57:05.110Z,10.40
2018-04-08T06:59:33.347Z,10.80
2018-04-08T07:02:00.818Z,10.80
2018-04-08T07:04:28.287Z,11.10
2018-04-08T07:06:55.768Z,11.30
2018-04-08T07:09:23.994Z,11.70
2018-04-08T07:11:51.496Z,11.70
2018-04-08T07:14:19.730Z,12.00
2018-04-08T07:16:47.203Z,12.00
2018-04-08T07:19:14.670Z,12.20
2018-04-08T07:21:42.144Z,12.50
2018-04-08T07:24:09.602Z,12.70
2018-04-08T07:26:37.082Z,12.90
2018-04-08T07:29:04.538Z,13.10
2018-04-08T07:31:32.766Z,13.50
2018-04-08T07:34:00.240Z,13.50
2018-04-08T07:36:27.703Z,13.70
2018-04-08T07:38:55.175Z,13.90
2018-04-08T07:41:23.402Z,14.20
2018-04-08T07:43:50.878Z,14.20
2018-04-08T07:46:18.333Z,14.40
2018-04-08T07:48:45.811Z,14.50
2018-04-08T07:51:14.072Z,14.90
2018-04-08T07:53:41.543Z,14.90
2018-04-08T07:56:09.005Z,15.10
2018-04-08T07:58:36.483Z,15.30
2018-04-08T08:01:04.719Z,15.70
2018-04-08T08:03:32.185Z,15.70
2018-04-08T08:05:59.658Z,15.80
2018-04-08T08:08:27.132Z,16.00
2018-04-08T08:10:55.653Z,16.40
2018-04-08T08:13:23.123Z,16.40
2018-04-08T08:15:50.589Z,16.60
2018-04-08T08:18:18.110Z,16.70
2018-04-08T08:20:47.045Z,17.00
2018-04-08T08:23:14.530Z,17.00
2018-04-08T08:25:41.999Z,17.10
2018-04-08T08:28:10.241Z,17.50
2018-04-08T08:30:37.709Z,17.40
2018-04-08T08:33:05.190Z,17.60
2018-04-08T08:35:32.651Z,17.80
2018-04-08T08:38:00.882Z,18.10
2018-04-08T08:40:28.373Z,18.10
2018-04-08T08:42:55.834Z,18.30
2018-04-08T08:45:23.329Z,18.40
2018-04-08T08:47:50.794Z,18.50
2018-04-08T08:50:18.266Z,18.70
2018-04-08T08:52:45.742Z,18.90
2018-04-08T08:55:13.228Z,19.10
2018-04-08T08:57:40.694Z,19.30
2018-04-08T09:00:08.937Z,19.50
2018-04-08T09:02:36.426Z,19.40
2018-04-08T09:05:03.902Z,19.60
2018-04-08T09:07:32.141Z,19.90
2018-04-08T09:09:59.618Z,19.90
2018-04-08T09:12:27.111Z,20.10
2018-04-08T09:14:54.585Z,20.20
2018-04-08T09:17:22.052Z,20.30
2018-04-08T09:19:55.114Z,20.40
2018-04-08T09:22:28.164Z,20.40
2018-04-08T09:24:56.652Z,20.60
2018-04-08T09:27:24.128Z,20.60
2018-04-08T09:29:52.380Z,20.90
2018-04-08T09:32:19.842Z,20.80
2018-04-08T09:34:47.311Z,21.00
2018-04-08T09:37:15.550Z,21.20
2018-04-08T09:39:43.024Z,21.20
2018-04-08T09:42:10.490Z,21.40
2018-04-08T09:44:37.971Z,21.50
2018-04-08T09:47:06.212Z,21.70
2018-04-08T09:49:33.710Z,21.70
2018-04-08T09:52:01.952Z,22.00
2018-04-08T09:54:29.426Z,22.00
2018-04-08T09:56:56.896Z,22.10
2018-04-08T09:59:25.159Z,22.20
2018-04-08T10:01:54.418Z,22.20
2018-04-08T10:04:21.894Z,22.30
2018-04-08T10:06:49.374Z,22.40
2018-04-08T10:09:16.833Z,22.60
2018-04-08T10:11:44.313Z,22.70
2018-04-08T10:14:12.547Z,22.90
2018-04-08T10:16:40.014Z,22.80
2018-04-08T10:19:07.481Z,22.90
2018-04-08T10:21:34.984Z,22.90
2018-04-08T10:24:02.454Z,22.90
2018-04-08T10:26:29.937Z,23.10
2018-04-08T10:28:57.409Z,23.20
2018-04-08T10:31:24.882Z,23.30
2018-04-08T10:33:52.345Z,23.50
2018-04-08T10:36:19.829Z,23.50
2018-04-08T10:38:48.058Z,23.70
2018-04-08T10:41:15.525Z,23.70
2018-04-08T10:43:42.996Z,23.70
2018-04-08T10:46:10.479Z,23.80
2018-04-08T10:48:38.706Z,23.90
2018-04-08T10:51:06.191Z,23.90
2018-04-08T10:53:33.659Z,23.90
2018-04-08T10:56:01.909Z,23.90
2018-04-08T10:58:30.133Z,24.00
2018-04-08T11:00:57.725Z,24.00
2018-04-08T11:03:25.215Z,24.00
2018-04-08T11:05:52.758Z,24.00
2018-04-08T11:08:20.222Z,24.10
2018-04-08T11:10:47.706Z,24.10
2018-04-08T11:13:15.939Z,24.20
2018-04-08T11:15:43.418Z,24.10
2018-04-08T11:18:10.886Z,24.10
2018-04-08T11:20:38.372Z,24.00
2018-04-08T11:23:06.602Z,23.70
2018-04-08T11:25:34.079Z,23.70
2018-04-08T11:28:01.548Z,23.70
2018-04-08T11:30:29.023Z,23.50
2018-04-08T11:32:57.324Z,23.80
2018-04-08T11:35:24.792Z,23.80
2018-04-08T11:37:52.803Z,23.90
2018-04-08T11:40:20.275Z,24.00
2018-04-08T11:42:47.739Z,24.10
2018-04-08T11:45:15.999Z,23.90
2018-04-08T11:47:43.472Z,23.90
2018-04-08T11:50:10.941Z,23.90
2018-04-08T11:52:39.182Z,24.20
2018-04-08T11:55:06.666Z,24.10
2018-04-08T11:57:34.229Z,24.20
2018-04-08T12:00:02.471Z,24.20
2018-04-08T12:02:29.946Z,24.20
2018-04-08T12:04:57.423Z,24.30
2018-04-08T12:07:25.672Z,24.10
2018-04-08T12:09:53.166Z,24.10
2018-04-08T12:12:20.723Z,24.10
2018-04-08T12:14:48.957Z,24.30
2018-04-08T12:17:16.432Z,24.30
2018-04-08T12:19:43.894Z,24.40
2018-04-08T12:22:11.370Z,24.40
2018-04-08T12:24:39.618Z,24.40
2018-04-08T12:27:07.109Z,24.30
2018-04-08T12:29:35.351Z,24.40
2018-04-08T12:32:02.827Z,24.30
2018-04-08T12:34:30.385Z,24.50
2018-04-08T12:36:57.862Z,24.70
2018-04-08T12:39:26.101Z,24.60
2018-04-08T12:41:53.577Z,24.60
2018-04-08T12:44:21.034Z,24.50
2018-04-08T12:46:48.508Z,24.60
2018-04-08T12:49:15.976Z,24.60
2018-04-08T12:51:44.230Z,24.60
2018-04-08T12:54:11.701Z,24.60
2018-04-08T12:56:39.179Z,24.70
2018-04-08T12:59:07.414Z,24.70
2018-04-08T13:01:34.886Z,24.70
2018-04-08T13:04:02.362Z,24.70
2018-04-08T13:06:29.835Z,24.80
2018-04-08T13:08:58.060Z,24.90
2018-04-08T13:11:25.586Z,24.90
2018-04-08T13:13:53.064Z,24.90
2018-04-08T13:16:20.583Z,25.00
2018-04-08T13:18:48.142Z,24.90
2018-04-08T13:21:15.644Z,24.90
2018-04-08T13:23:43.106Z,25.00
2018-04-08T13:26:10.604Z,25.20
2018-04-08T13:28:38.069Z,25.40
2018-04-08T13:31:06.322Z,25.60
2018-04-08T13:33:33.836Z,25.60
2018-04-08T13:36:01.300Z,25.70
2018-04-08T13:38:28.758Z,25.60
2018-04-08T13:40:56.251Z,25.40
2018-04-08T13:43:23.715Z,25.40
2018-04-08T13:45:51.180Z,25.20
2018-04-08T13:48:18.696Z,25.10
2018-04-08T13:50:46.125Z,25.20
2018-04-08T13:53:14.375Z,25.00
2018-04-08T13:55:41.866Z,25.00
2018-04-08T13:58:10.096Z,25.10
2018-04-08T14:00:37.567Z,25.10
2018-04-08T14:03:05.044Z,25.10
2018-04-08T14:05:32.507Z,25.00
2018-04-08T14:08:00.759Z,25.10
2018-04-08T14:10:28.225Z,25.00
2018-04-08T14:12:55.707Z,24.90
2018-04-08T14:15:23.943Z,24.80
2018-04-08T14:17:51.418Z,24.80
2018-04-08T14:20:18.893Z,24.80
2018-04-08T14:22:46.359Z,25.10
2018-04-08T14:25:14.619Z,25.30
2018-04-08T14:27:42.097Z,25.30
2018-04-08T14:30:10.335Z,25.50
2018-04-08T14:32:37.801Z,25.50
2018-04-08T14:35:05.261Z,25.60
2018-04-08T14:37:32.758Z,25.50
2018-04-08T14:40:00.981Z,25.30
2018-04-08T14:42:28.457Z,25.30
2018-04-08T14:44:55.934Z,25.30
2018-04-08T14:47:23.416Z,25.30
2018-04-08T14:49:50.887Z,25.10
2018-04-08T14:52:18.358Z,24.90
2018-04-08T14:54:46.188Z,24.60
2018-04-08T14:57:14.429Z,24.90
2018-04-08T14:59:41.922Z,24.90
2018-04-08T15:02:09.378Z,25.10
2018-04-08T15:04:37.648Z,25.30
2018-04-08T15:07:05.110Z,25.30
2018-04-08T15:09:33.425Z,25.30
2018-04-08T15:12:00.895Z,25.20
2018-04-08T15:14:28.374Z,25.10
2018-04-08T15:16:55.843Z,25.10
2018-04-08T15:19:23.318Z,24.90
2018-04-08T15:21:51.553Z,24.70
2018-04-08T15:24:19.627Z,24.70
2018-04-08T15:26:47.087Z,24.70
2018-04-08T15:29:14.559Z,24.50
2018-04-08T15:31:42.072Z,24.50
2018-04-08T15:34:09.494Z,24.40
2018-04-08T15:36:36.970Z,24.30
2018-04-08T15:39:06.049Z,24.40
2018-04-08T15:41:33.510Z,24.40
2018-04-08T15:44:00.986Z,24.40
2018-04-08T15:46:30.040Z,24.30
2018-04-08T15:48:57.514Z,24.20
2018-04-08T15:51:25.087Z,24.20
2018-04-08T15:53:52.505Z,24.20
2018-04-08T15:56:19.967Z,24.20
2018-04-08T15:58:47.455Z,24.20
2018-04-08T16:01:14.934Z,24.10
2018-04-08T16:03:43.183Z,24.00
2018-04-08T16:06:10.645Z,24.00
2018-04-08T16:08:38.117Z,24.00
2018-04-08T16:11:06.345Z,23.70
2018-04-08T16:13:33.819Z,23.70
2018-04-08T16:16:01.298Z,23.60
2018-04-08T16:18:28.767Z,23.70
2018-04-08T16:20:56.251Z,23.50
2018-04-08T16:23:23.730Z,23.30
2018-04-08T16:28:25.829Z,22.70
2018-04-08T16:30:53.301Z,22.70
2018-04-08T16:33:20.787Z,22.60
2018-04-08T16:35:48.306Z,22.60
2018-04-08T16:38:15.802Z,22.50
2018-04-08T16:40:43.277Z,22.30
2018-04-08T16:43:11.509Z,22.00
2018-04-08T16:45:38.998Z,22.00
2018-04-08T16:48:06.507Z,21.90
2018-04-08T16:50:33.982Z,21.60
2018-04-08T16:53:01.446Z,21.60
2018-04-08T16:55:28.917Z,21.40
2018-04-08T16:57:56.400Z,21.30
2018-04-08T17:00:23.867Z,21.30
2018-04-08T17:02:52.094Z,21.00
2018-04-08T17:05:19.578Z,21.00
2018-04-08T17:07:47.051Z,20.90
2018-04-08T17:10:15.285Z,20.70
2018-04-08T17:12:42.749Z,20.70
2018-04-08T17:15:10.256Z,20.60
2018-04-08T17:17:38.489Z,20.50
2018-04-08T17:20:05.994Z,20.50
2018-04-08T17:22:34.214Z,20.20
2018-04-08T17:25:01.695Z,20.20
2018-04-08T17:27:29.154Z,20.00
2018-04-08T17:29:56.631Z,19.90
2018-04-08T17:32:24.865Z,19.70
2018-04-08T17:34:52.345Z,19.70
2018-04-08T17:37:19.817Z,19.50
2018-04-08T17:39:47.283Z,19.30
2018-04-08T17:42:15.523Z,18.90
2018-04-08T17:44:43.750Z,18.80
2018-04-08T17:47:12.003Z,18.70
2018-04-08T17:49:39.473Z,18.70
2018-04-08T17:52:06.946Z,18.80
2018-04-08T17:54:35.170Z,18.70
2018-04-08T17:57:02.655Z,18.70
2018-04-08T17:59:30.123Z,18.40
2018-04-08T18:01:58.369Z,18.30
2018-04-08T18:04:25.837Z,18.20
2018-04-08T18:06:53.307Z,18.00
2018-04-08T18:09:20.783Z,17.80
2018-04-08T18:11:48.267Z,17.70
2018-04-08T18:14:15.740Z,17.50
2018-04-08T18:16:43.218Z,17.60
2018-04-08T18:19:10.691Z,17.50
2018-04-08T18:21:38.161Z,17.30
2018-04-08T18:24:05.643Z,17.30
2018-04-08T18:26:33.887Z,17.00
2018-04-08T18:29:01.350Z,17.00
2018-04-08T18:31:28.849Z,17.00
2018-04-08T18:33:56.316Z,16.80
2018-04-08T18:36:23.798Z,16.80
2018-04-08T18:38:51.260Z,16.80
2018-04-08T18:41:18.730Z,16.70
2018-04-08T18:43:46.211Z,16.60
2018-04-08T18:46:13.720Z,16.60
2018-04-08T18:48:41.211Z,16.50
2018-04-08T18:51:08.686Z,16.40
2018-04-08T18:53:36.174Z,16.30
2018-04-08T18:56:04.420Z,16.30
2018-04-08T18:58:31.893Z,16.20
2018-04-08T19:01:00.866Z,16.10
2018-04-08T19:03:28.328Z,16.10
2018-04-08T19:05:55.832Z,16.00
2018-04-08T19:08:23.350Z,16.00
2018-04-08T19:10:50.824Z,15.90
2018-04-08T19:13:19.086Z,15.80
2018-04-08T19:15:46.560Z,15.80
2018-04-08T19:18:14.813Z,15.70
2018-04-08T19:20:45.122Z,15.70
2018-04-08T19:23:12.594Z,15.60
2018-04-08T19:25:40.059Z,15.60
2018-04-08T19:28:07.572Z,15.60
2018-04-08T19:30:35.033Z,15.60
2018-04-08T19:33:02.503Z,15.50
2018-04-08T19:35:29.966Z,15.40
2018-04-08T19:37:58.252Z,15.20
2018-04-08T19:40:25.714Z,15.10
2018-04-08T19:42:53.185Z,15.20
2018-04-08T19:45:20.646Z,15.00
2018-04-08T19:47:48.200Z,15.00
2018-04-08T19:50:15.684Z,14.90
2018-04-08T19:52:44.009Z,14.80
2018-04-08T19:55:11.399Z,14.80
2018-04-08T19:57:38.879Z,14.90
2018-04-08T20:00:07.108Z,14.70
2018-04-08T20:02:35.351Z,14.70
2018-04-08T20:05:02.822Z,14.70
2018-04-08T20:07:30.291Z,14.80
2018-04-08T20:09:57.767Z,14.70
2018-04-08T20:12:25.468Z,14.70
2018-04-08T20:14:52.962Z,14.70
2018-04-08T20:17:20.421Z,14.60
2018-04-08T20:19:47.903Z,14.60
2018-04-08T20:22:15.395Z,14.60
2018-04-08T20:24:43.004Z,14.60
2018-04-08T20:27:25.166Z,14.70
2018-04-08T20:29:53.411Z,14.70
2018-04-08T20:32:20.887Z,14.60
2018-04-08T20:34:48.394Z,14.70
2018-04-08T20:37:16.036Z,14.60
2018-04-08T20:39:43.526Z,14.60
2018-04-08T20:42:11.001Z,14.60
2018-04-08T20:44:38.543Z,14.50
2018-04-08T20:47:06.024Z,14.50
2018-04-08T20:49:33.528Z,14.40
2018-04-08T20:52:01.018Z,14.40
2018-04-08T20:54:28.496Z,14.30
2018-04-08T20:56:55.964Z,14.30
2018-04-08T20:59:23.440Z,13.90
2018-04-08T21:01:51.678Z,13.50
2018-04-08T21:04:19.155Z,13.50
2018-04-08T21:06:46.885Z,13.50
2018-04-08T21:09:14.365Z,13.40
2018-04-08T21:11:41.838Z,13.20
2018-04-08T21:14:09.316Z,13.10
2018-04-08T21:16:36.787Z,13.10
2018-04-08T21:19:05.039Z,12.80
2018-04-08T21:21:32.515Z,12.80
2018-04-08T21:23:59.990Z,12.60
2018-04-08T21:26:27.454Z,12.50
2018-04-08T21:28:54.941Z,12.50
2018-04-08T21:31:22.422Z,12.40
2018-04-08T21:33:49.954Z,12.30
2018-04-08T21:36:23.847Z,12.40
2018-04-08T21:38:51.326Z,12.40
2018-04-08T21:41:18.798Z,12.50
2018-04-08T21:43:47.037Z,12.60
2018-04-08T21:46:14.505Z,12.50
2018-04-08T21:48:41.968Z,12.50
2018-04-08T21:51:09.496Z,12.50
2018-04-08T21:53:37.775Z,12.50
2018-04-08T21:56:06.025Z,12.40
2018-04-08T21:58:33.498Z,12.30
2018-04-08T22:01:01.740Z,12.10
2018-04-08T22:03:29.211Z,12.10
2018-04-08T22:05:56.694Z,12.00
2018-04-08T22:08:24.949Z,11.70
2018-04-08T22:10:52.406Z,11.70
2018-04-08T22:13:19.878Z,11.50
2018-04-08T22:15:47.351Z,11.40
2018-04-08T22:18:15.575Z,11.20
2018-04-08T22:20:43.062Z,11.20
2018-04-08T22:23:10.583Z,10.90
2018-04-08T22:25:38.060Z,10.70
2018-04-08T22:28:05.513Z,10.70
2018-04-08T22:30:32.980Z,10.70
2018-04-08T22:33:00.458Z,10.80
2018-04-08T22:35:27.953Z,10.90
2018-04-08T22:37:55.427Z,11.00
2018-04-08T22:40:22.920Z,11.00
2018-04-08T22:42:50.373Z,11.00
2018-04-08T22:45:18.621Z,11.10
2018-04-08T22:47:46.083Z,11.10
2018-04-08T22:50:13.557Z,11.20
2018-04-08T22:52:41.032Z,11.10
2018-04-08T22:55:08.516Z,11.10
2018-04-08T22:57:36.746Z,11.20
2018-04-08T23:00:04.229Z,11.10
2018-04-08T23:02:31.690Z,11.10
2018-04-08T23:04:59.171Z,11.10
2018-04-08T23:07:27.399Z,11.10
2018-04-08T23:09:54.870Z,11.10
2018-04-08T23:12:22.350Z,11.10
2018-04-08T23:14:49.840Z,10.90
2018-04-08T23:17:18.085Z,10.80
2018-04-08T23:19:45.555Z,10.80
2018-04-08T23:22:13.831Z,10.60
2018-04-08T23:24:41.299Z,10.60
2018-04-08T23:27:09.577Z,10.50
2018-04-08T23:29:37.814Z,10.50
2018-04-08T23:32:05.291Z,10.50
2018-04-08T23:34:32.822Z,10.50
2018-04-08T23:37:00.246Z,10.50
2018-04-08T23:39:27.724Z,10.40
2018-04-08T23:41:55.213Z,10.30
2018-04-08T23:44:22.704Z,10.20
2018-04-08T23:46:51.332Z,10.20
2018-04-08T23:49:18.851Z,10.10
2018-04-08T23:51:47.111Z,10.00
2018-04-08T23:54:15.354Z,9.80
2018-04-08T23:56:42.836Z,9.80
2018-04-08T23:59:10.318Z,9.80
